Time;durP1;ratioP1;P1;durP2;ratioP2;P2;SDS_P1;SDS_P2;PMS_P1;PMS_P2;Temp;Humidity;BMP_temperature;BMP_pressure;BME280_temperature;BME280_humidity;BME280_pressure;Samples;Min_cycle;Max_cycle;Signal;HPM_P1;HPM_P2
2023/08/27 05:15:20;;;;;;;7.90;7.00;;;;;;;21.38;100.00;98278.63;104043;1277;604516;-70
2023/08/27 05:17:48;;;;;;;6.30;5.70;;;;;;;21.22;100.00;98281.83;105082;1264;59356;-70
2023/08/27 05:20:15;;;;;;;6.90;6.20;;;;;;;21.05;100.00;98285.52;105141;1264;59514;-69
2023/08/27 05:22:42;;;;;;;6.20;5.60;;;;;;;20.90;100.00;98284.84;105024;1264;64271;-69
2023/08/27 05:25:09;;;;;;;7.20;5.70;;;;;;;20.77;100.00;98283.34;104884;1264;59248;-71
2023/08/27 05:27:35;;;;;;;7.20;5.80;;;;;;;20.67;100.00;98281.28;104764;1261;169824;-71
2023/08/27 05:30:01;;;;;;;6.70;5.90;;;;;;;20.74;100.00;98283.69;105151;1264;59285;-71
2023/08/27 05:32:28;;;;;;;8.70;5.80;;;;;;;20.98;100.00;98289.21;105198;1265;59359;-70
2023/08/27 05:34:55;;;;;;;6.40;5.30;;;;;;;21.30;100.00;98290.93;105219;1261;64189;-70
2023/08/27 05:37:20;;;;;;;6.00;5.40;;;;;;;21.24;100.00;98289.52;105223;1267;59269;-70
2023/08/27 05:39:47;;;;;;;5.90;5.10;;;;;;;21.03;100.00;98289.90;105713;1256;59661;-71
2023/08/27 05:42:13;;;;;;;6.60;5.50;;;;;;;20.95;100.00;98284.91;105728;1254;59829;-70
2023/08/27 05:44:39;;;;;;;6.20;5.10;;;;;;;20.90;100.00;98282.50;105698;1254;59859;-70
2023/08/27 05:47:05;;;;;;;7.00;5.40;;;;;;;20.79;100.00;98283.19;105735;1257;59748;-71
2023/08/27 05:49:31;;;;;;;6.50;5.50;;;;;;;20.70;100.00;98285.61;105564;1257;59764;-70
2023/08/27 05:51:57;;;;;;;6.10;5.50;;;;;;;20.61;100.00;98284.79;105349;1260;59736;-70
2023/08/27 05:54:23;;;;;;;7.70;5.80;;;;;;;20.57;100.00;98286.64;105555;1254;59634;-70
2023/08/27 05:56:49;;;;;;;7.80;7.10;;;;;;;20.57;100.00;98287.47;105579;1254;59740;-70
2023/08/27 05:59:15;;;;;;;9.40;7.20;;;;;;;20.65;100.00;98293.09;105737;1253;59748;-70
2023/08/27 06:01:42;;;;;;;10.10;7.90;;;;;;;20.76;100.00;98289.90;105709;1255;59666;-70
2023/08/27 06:04:08;;;;;;;9.60;7.90;;;;;;;20.85;100.00;98290.48;105726;1257;59617;-70
2023/08/27 06:06:37;;;;;;;8.60;7.60;;;;;;;20.90;100.00;98290.83;105718;1256;59560;-70
2023/08/27 06:09:03;;;;;;;12.20;8.50;;;;;;;20.96;100.00;98288.77;105333;1252;63871;-69
2023/08/27 06:11:29;;;;;;;9.80;8.40;;;;;;;20.97;100.00;98289.31;105685;1257;60066;-70
2023/08/27 06:13:55;;;;;;;10.80;9.60;;;;;;;20.87;100.00;98290.05;105663;1253;59630;-71
2023/08/27 06:16:21;;;;;;;12.30;11.00;;;;;;;20.71;100.00;98293.02;105757;1254;59780;-71
2023/08/27 06:18:47;;;;;;;15.10;13.40;;;;;;;20.63;100.00;98287.55;105691;1252;59662;-69
2023/08/27 06:21:13;;;;;;;15.60;14.00;;;;;;;20.57;100.00;98280.30;105811;1254;60187;-70
2023/08/27 06:23:40;;;;;;;16.20;14.60;;;;;;;20.51;100.00;98275.00;105743;1254;59580;-70
2023/08/27 06:26:05;;;;;;;15.70;13.10;;;;;;;20.52;100.00;98274.34;105372;1254;60132;-70
2023/08/27 06:28:32;;;;;;;15.10;13.70;;;;;;;20.63;100.00;98275.81;105723;1253;59788;-71
2023/08/27 06:30:59;;;;;;;14.40;13.00;;;;;;;20.66;100.00;98275.56;105677;1257;59659;-70
2023/08/27 06:33:26;;;;;;;15.00;13.50;;;;;;;20.66;100.00;98271.11;105797;1257;59630;-70
2023/08/27 06:35:53;;;;;;;15.70;14.10;;;;;;;20.81;100.00;98266.25;105754;1256;59977;-71
2023/08/27 06:38:19;;;;;;;15.30;13.80;;;;;;;20.93;100.00;98272.96;105680;1254;59659;-70
2023/08/27 06:40:45;;;;;;;16.10;14.60;;;;;;;21.01;100.00;98270.41;105549;1254;59797;-69
2023/08/27 06:43:11;;;;;;;16.10;14.50;;;;;;;21.17;100.00;98260.52;105559;1252;59770;-71
2023/08/27 06:45:38;;;;;;;15.60;14.10;;;;;;;21.30;100.00;98266.88;105534;1254;59665;-71
2023/08/27 06:48:04;;;;;;;15.80;14.20;;;;;;;21.39;100.00;98263.55;105743;1257;59754;-69
2023/08/27 06:50:30;;;;;;;16.30;14.80;;;;;;;21.46;100.00;98259.48;105685;1257;59658;-71
2023/08/27 06:52:56;;;;;;;16.30;14.50;;;;;;;21.52;100.00;98261.01;105710;1254;59758;-70
2023/08/27 06:55:23;;;;;;;16.40;14.80;;;;;;;21.55;100.00;98267.26;105754;1253;59662;-70
2023/08/27 06:57:49;;;;;;;15.50;14.10;;;;;;;21.59;100.00;98282.36;105339;1261;59755;-71
2023/08/27 07:00:17;;;;;;;15.70;14.10;;;;;;;21.62;100.00;98296.77;105597;1255;59678;-70
2023/08/27 07:02:44;;;;;;;15.70;14.10;;;;;;;21.70;100.00;98295.98;105362;1258;59669;-72
2023/08/27 07:05:10;;;;;;;16.20;14.60;;;;;;;21.82;100.00;98291.27;105706;1253;60295;-71
2023/08/27 07:07:37;;;;;;;14.60;13.20;;;;;;;21.94;100.00;98292.80;105436;1255;59845;-70
2023/08/27 07:10:07;;;;;;;14.10;12.70;;;;;;;22.04;100.00;98298.92;105428;1262;59769;-70
2023/08/27 07:12:33;;;;;;;;;;;;;;;22.08;100.00;98298.79;105485;1260;64045;-70
2023/08/27 07:15:01;;;;;;;13.00;11.90;;;;;;;22.15;100.00;98299.00;105729;1254;59768;-69
2023/08/27 07:17:27;;;;;;;13.50;12.30;;;;;;;22.24;100.00;98298.45;105788;1255;59685;-70
2023/08/27 07:19:53;;;;;;;13.30;12.10;;;;;;;22.24;100.00;98297.94;105519;1254;59659;-71
2023/08/27 07:22:19;;;;;;;13.40;12.20;;;;;;;22.18;100.00;98301.05;105710;1254;59746;-72
2023/08/27 07:24:46;;;;;;;15.10;13.60;;;;;;;22.08;100.00;98306.27;105730;1257;59643;-70
2023/08/27 07:27:12;;;;;;;14.40;12.90;;;;;;;21.99;100.00;98308.68;105744;1257;59822;-70
2023/08/27 07:29:38;;;;;;;16.20;14.70;;;;;;;21.90;100.00;98310.09;105443;1261;59579;-70
2023/08/27 07:32:04;;;;;;;18.70;15.40;;;;;;;21.87;100.00;98312.73;105748;1256;59808;-70
2023/08/27 07:34:31;;;;;;;17.30;15.60;;;;;;;21.83;100.00;98309.39;105730;1257;59652;-71
2023/08/27 07:36:57;;;;;;;17.70;15.10;;;;;;;21.85;100.00;98300.77;105689;1253;59665;-71
2023/08/27 07:39:23;;;;;;;16.90;15.40;;;;;;;22.01;100.00;98295.02;105704;1254;59554;-70
2023/08/27 07:41:49;;;;;;;16.50;14.90;;;;;;;22.22;100.00;98297.95;105681;1257;59857;-70
2023/08/27 07:44:16;;;;;;;15.60;14.00;;;;;;;22.37;100.00;98301.40;105719;1257;59630;-70
2023/08/27 07:46:43;;;;;;;15.20;13.60;;;;;;;22.48;100.00;98301.41;105706;1257;59703;-70
2023/08/27 07:49:11;;;;;;;14.90;13.40;;;;;;;22.63;100.00;98305.66;105744;1257;59620;-71
2023/08/27 07:51:37;;;;;;;13.80;12.50;;;;;;;22.75;100.00;98302.08;105699;1254;59668;-69
2023/08/27 07:54:03;;;;;;;14.00;12.70;;;;;;;22.87;100.00;98294.15;105709;1257;59780;-69
2023/08/27 07:56:29;;;;;;;13.30;12.10;;;;;;;23.11;100.00;98292.66;105724;1255;59745;-70
2023/08/27 07:58:55;;;;;;;12.50;11.40;;;;;;;23.44;100.00;98285.30;105694;1254;59655;-70
2023/08/27 08:01:21;;;;;;;14.00;12.60;;;;;;;23.71;100.00;98285.84;105672;1257;59729;-70
2023/08/27 08:03:47;;;;;;;12.80;11.80;;;;;;;24.01;100.00;98281.91;105671;1257;59735;-70
2023/08/27 08:06:13;;;;;;;13.30;12.00;;;;;;;24.25;100.00;98284.50;105681;1254;65168;-71
2023/08/27 08:19:04;;;;;;;12.60;11.40;;;;;;;24.22;100.00;98274.79;102377;1294;600658;-72
2023/08/27 08:21:31;;;;;;;11.60;10.60;;;;;;;24.24;100.00;98275.91;104857;1264;59360;-70
2023/08/27 08:23:58;;;;;;;10.90;10.00;;;;;;;24.33;100.00;98272.20;104984;1269;60185;-71
2023/08/27 08:26:24;;;;;;;9.50;8.80;;;;;;;24.44;100.00;98279.84;104791;1266;59422;-71
2023/08/27 08:28:50;;;;;;;9.80;8.80;;;;;;;24.47;100.00;98284.87;104954;1266;59689;-71
2023/08/27 08:31:17;;;;;;;10.20;9.20;;;;;;;24.26;100.00;98279.52;104826;1264;59437;-71
2023/08/27 08:33:44;;;;;;;11.30;10.40;;;;;;;24.00;100.00;98278.86;105019;1263;145970;-71
2023/08/27 08:36:10;;;;;;;10.40;9.60;;;;;;;23.86;100.00;98274.92;105753;1256;59430;-71
2023/08/27 08:38:37;;;;;;;11.00;9.90;;;;;;;23.85;100.00;98264.20;105881;1254;59340;-71
2023/08/27 08:41:06;;;;;;;10.70;9.80;;;;;;;23.93;100.00;98258.36;105736;1257;59879;-70
2023/08/27 08:44:05;;;;;;;10.30;9.50;;;;;;;23.95;100.00;98254.55;105943;1250;65934;-71
2023/08/27 08:46:34;;;;;;;;;;;;;;;23.94;100.00;98253.30;105993;1254;59564;-70
2023/08/27 08:49:02;;;;;;;11.00;10.10;;;;;;;23.90;100.00;98257.30;105943;1254;59623;-71
2023/08/27 08:51:30;;;;;;;10.80;9.80;;;;;;;23.91;100.00;98258.06;105911;1254;64454;-69
2023/08/27 08:54:02;;;;;;;11.00;10.10;;;;;;;23.98;100.00;98253.97;105913;1250;60325;-70
2023/08/27 08:56:36;;;;;;;10.20;9.30;;;;;;;24.09;100.00;98250.30;105902;1251;64851;-71
2023/08/27 08:59:04;;;;;;;12.70;11.60;;;;;;;24.26;100.00;98244.79;105886;1254;59551;-69
2023/08/27 09:01:31;;;;;;;11.50;10.40;;;;;;;24.32;100.00;98242.11;105943;1251;59628;-70
2023/08/27 09:04:00;;;;;;;10.90;10.00;;;;;;;24.36;100.00;98245.51;105876;1254;65037;-70
2023/08/27 09:06:27;;;;;;;11.40;10.40;;;;;;;24.56;100.00;98247.33;105903;1250;70028;-70
2023/08/27 09:08:55;;;;;;;11.10;10.10;;;;;;;24.73;100.00;98240.73;105884;1250;64667;-70
2023/08/27 09:11:24;;;;;;;11.20;10.30;;;;;;;25.01;100.00;98239.57;105934;1254;59621;-70
2023/08/27 09:13:52;;;;;;;10.30;9.40;;;;;;;25.37;100.00;98236.96;105916;1250;59632;-72
2023/08/27 09:16:18;;;;;;;10.40;9.40;;;;;;;25.62;100.00;98231.38;105649;1255;64980;-69
2023/08/27 09:18:45;;;;;;;9.20;8.50;;;;;;;25.85;100.00;98239.63;105916;1254;59788;-70
2023/08/27 09:21:12;;;;;;;10.00;9.10;;;;;;;26.06;100.00;98246.77;105890;1253;62760;-72
2023/08/27 09:23:38;;;;;;;10.00;9.10;;;;;;;26.25;100.00;98244.62;105914;1254;59643;-70
2023/08/27 09:26:05;;;;;;;9.40;8.50;;;;;;;26.37;100.00;98248.48;105893;1250;59619;-70
2023/08/27 09:28:35;;;;;;;9.70;8.90;;;;;;;26.53;100.00;98246.42;105848;1251;64214;-71
2023/08/27 09:31:02;;;;;;;9.90;9.00;;;;;;;26.62;100.00;98253.84;105836;1250;60764;-70
2023/08/27 09:33:40;;;;;;;9.50;8.70;;;;;;;26.69;100.00;98248.44;105870;1250;64469;-70
2023/08/27 09:36:09;;;;;;;9.00;8.30;;;;;;;26.83;100.00;98246.02;105950;1250;59689;-71
2023/08/27 09:38:36;;;;;;;9.10;8.40;;;;;;;26.99;100.00;98252.85;105943;1250;61164;-72
2023/08/27 09:41:14;;;;;;;9.30;8.60;;;;;;;27.01;100.00;98257.58;105942;1254;65118;-71
2023/08/27 09:43:50;;;;;;;9.40;8.60;;;;;;;27.08;100.00;98257.59;105666;1256;59839;-70
2023/08/27 09:46:17;;;;;;;8.90;8.10;;;;;;;27.32;100.00;98248.88;105568;1250;64800;-70
2023/08/27 09:48:44;;;;;;;8.50;7.80;;;;;;;27.67;100.00;98241.23;105801;1250;59654;-71
2023/08/27 09:51:11;;;;;;;10.30;9.40;;;;;;;27.90;100.00;98241.29;105897;1251;59555;-71
2023/08/27 09:53:38;;;;;;;9.10;8.40;;;;;;;27.93;100.00;98242.13;105891;1250;65058;-70
2023/08/27 09:56:04;;;;;;;10.20;9.30;;;;;;;27.93;100.00;98232.23;105439;1250;60722;-69
2023/08/27 09:58:31;;;;;;;9.10;8.30;;;;;;;27.96;100.00;98223.66;109641;1250;63575;-70
2023/08/27 10:00:59;;;;;;;9.80;9.00;;;;;;;28.05;100.00;98218.73;109655;1250;57354;-70
2023/08/27 10:03:28;;;;;;;9.40;8.70;;;;;;;28.10;100.00;98224.16;109620;1250;57454;-70
2023/08/27 10:05:55;;;;;;;8.70;8.10;;;;;;;28.14;100.00;98235.83;109594;1250;64423;-71
2023/08/27 10:08:22;;;;;;;9.70;8.80;;;;;;;28.21;100.00;98232.89;109739;1250;58823;-71
2023/08/27 10:10:48;;;;;;;9.80;8.90;;;;;;;28.23;100.00;98232.02;109620;1250;62960;-69
2023/08/27 10:13:20;;;;;;;9.60;8.90;;;;;;;28.25;100.00;98230.93;109699;1250;57341;-70
2023/08/27 10:15:47;;;;;;;9.00;8.30;;;;;;;28.37;100.00;98231.23;109667;1250;57279;-70
2023/08/27 10:18:14;;;;;;;8.70;8.10;;;;;;;28.45;100.00;98237.25;109642;1250;64453;-70
2023/08/27 10:20:41;;;;;;;9.10;8.30;;;;;;;28.26;100.00;98239.76;109695;1250;60042;-70
2023/08/27 10:23:10;;;;;;;8.70;8.10;;;;;;;28.07;100.00;98233.91;109681;1250;64067;-70
2023/08/27 10:25:37;;;;;;;9.30;8.50;;;;;;;27.99;100.00;98230.54;109506;1255;57872;-71
2023/08/27 10:28:06;;;;;;;9.40;8.70;;;;;;;27.95;100.00;98226.09;109678;1250;57404;-71
2023/08/27 10:30:34;;;;;;;9.60;8.90;;;;;;;27.93;100.00;98230.16;109663;1250;64705;-71
2023/08/27 10:33:01;;;;;;;9.00;8.40;;;;;;;27.98;100.00;98234.08;109675;1250;60167;-71
2023/08/27 10:35:31;;;;;;;9.90;9.10;;;;;;;28.05;100.00;98229.48;109683;1250;62485;-71
2023/08/27 10:37:58;;;;;;;9.00;8.30;;;;;;;28.19;100.00;98224.53;109680;1250;57902;-71
2023/08/27 10:40:26;;;;;;;9.20;8.50;;;;;;;28.28;100.00;98228.41;109655;1250;57253;-71
2023/08/27 10:43:06;;;;;;;9.50;8.70;;;;;;;28.29;100.00;98223.83;109711;1250;64465;-69
2023/08/27 10:45:37;;;;;;;9.60;8.90;;;;;;;28.34;100.00;98220.45;109714;1250;58944;-70
2023/08/27 10:48:11;;;;;;;9.80;9.10;;;;;;;28.26;100.00;98213.95;109651;1250;62694;-71
2023/08/27 10:50:48;;;;;;;10.40;9.60;;;;;;;28.04;100.00;98201.62;109642;1250;57567;-71
2023/08/27 10:53:16;;;;;;;11.00;10.10;;;;;;;28.07;100.00;98200.05;109627;1250;57410;-71
2023/08/27 10:55:49;;;;;;;10.10;9.40;;;;;;;28.17;100.00;98202.73;109680;1250;63293;-70
2023/08/27 10:58:21;;;;;;;10.40;9.60;;;;;;;28.30;100.00;98197.79;109688;1250;58935;-70
2023/08/27 11:01:07;;;;;;;10.40;9.60;;;;;;;28.42;100.00;98195.47;109501;1250;62890;-70
2023/08/27 11:03:58;;;;;;;10.40;9.50;;;;;;;28.48;100.00;98190.30;109669;1250;57335;-71
2023/08/27 11:06:48;;;;;;;10.10;9.30;;;;;;;28.54;100.00;98180.34;109659;1250;57486;-70
2023/08/27 11:09:23;;;;;;;10.10;9.40;;;;;;;28.46;100.00;98183.38;109672;1250;64433;-70
2023/08/27 11:11:59;;;;;;;10.30;9.40;;;;;;;28.38;100.00;98178.67;109716;1250;58785;-69
2023/08/27 11:14:26;;;;;;;10.40;9.40;;;;;;;28.46;100.00;98179.20;109647;1250;64084;-70
2023/08/27 11:16:59;;;;;;;10.30;9.40;;;;;;;28.43;100.00;98174.81;109617;1250;57436;-70
2023/08/27 11:19:36;;;;;;;10.60;9.60;;;;;;;28.47;100.00;98171.89;109656;1250;57257;-70
2023/08/27 11:22:12;;;;;;;10.50;9.70;;;;;;;28.64;100.00;98171.63;109524;1250;64609;-70
2023/08/27 11:24:43;;;;;;;11.60;10.70;;;;;;;28.81;100.00;98170.80;109708;1250;59860;-70
2023/08/27 11:27:11;;;;;;;12.10;11.20;;;;;;;28.95;100.00;98167.48;109692;1250;64085;-70
2023/08/27 11:29:40;;;;;;;10.90;10.10;;;;;;;29.01;100.00;98171.30;109668;1250;57413;-70
2023/08/27 11:32:08;;;;;;;9.80;9.10;;;;;;;29.09;100.00;98172.91;109624;1250;57386;-70
2023/08/27 11:34:37;;;;;;;10.50;9.70;;;;;;;29.18;100.00;98172.83;109713;1250;64096;-70
2023/08/27 11:37:04;;;;;;;11.90;10.90;;;;;;;29.23;100.00;98169.80;109662;1250;60099;-70
2023/08/27 11:39:35;;;;;;;11.30;10.40;;;;;;;29.27;100.00;98173.11;109460;1250;64037;-70
2023/08/27 11:42:02;;;;;;;10.80;10.00;;;;;;;29.24;100.00;98166.84;109611;1250;57434;-70
2023/08/27 11:44:28;;;;;;;11.50;10.60;;;;;;;29.18;100.00;98165.02;109543;1250;57441;-70
2023/08/27 11:47:04;;;;;;;11.70;10.70;;;;;;;29.07;100.00;98167.77;109682;1250;64470;-70
2023/08/27 11:49:32;;;;;;;12.00;11.10;;;;;;;29.11;100.00;98166.42;109404;1250;59052;-70
2023/08/27 11:52:00;;;;;;;11.00;10.20;;;;;;;29.35;100.00;98165.21;109709;1250;64102;-71
2023/08/27 11:54:31;;;;;;;11.10;10.10;;;;;;;29.61;100.00;98160.63;109622;1250;57393;-71
2023/08/27 11:56:58;;;;;;;11.00;10.20;;;;;;;29.75;100.00;98163.64;109646;1250;57429;-71
2023/08/27 11:59:29;;;;;;;11.90;10.90;;;;;;;29.89;100.00;98166.73;109476;1250;64489;-69
2023/08/27 12:01:57;;;;;;;11.80;11.00;;;;;;;29.95;100.00;98164.30;109549;1250;60303;-71
2023/08/27 12:04:27;;;;;;;11.80;10.90;;;;;;;29.98;100.00;98161.86;109631;1250;64046;-71
2023/08/27 12:06:59;;;;;;;14.00;12.90;;;;;;;29.96;100.00;98160.98;109620;1250;57351;-70
2023/08/27 12:09:28;;;;;;;12.90;11.70;;;;;;;29.96;100.00;98157.13;109686;1250;57319;-70
2023/08/27 12:11:59;;;;;;;13.60;12.40;;;;;;;29.98;100.00;98156.00;109660;1250;63321;-70
2023/08/27 12:14:26;;;;;;;14.10;13.10;;;;;;;30.10;100.00;98160.55;109679;1250;60207;-70
2023/08/27 12:16:53;;;;;;;13.10;11.90;;;;;;;30.11;100.00;98160.56;109376;1250;64335;-70
2023/08/27 12:19:22;;;;;;;14.20;13.10;;;;;;;30.01;100.00;98164.52;109686;1250;57352;-70
2023/08/27 12:21:53;;;;;;;14.80;13.50;;;;;;;29.88;100.00;98168.52;109717;1250;57506;-70
2023/08/27 12:24:34;;;;;;;16.80;15.50;;;;;;;29.62;100.00;98168.42;109739;1250;64640;-70
2023/08/27 12:27:03;;;;;;;16.80;15.50;;;;;;;29.22;100.00;98169.66;109688;1250;61144;-70
2023/08/27 12:29:36;;;;;;;17.50;15.80;;;;;;;28.99;100.00;98167.58;109649;1250;62932;-70
2023/08/27 12:32:17;;;;;;;15.10;13.80;;;;;;;28.86;100.00;98162.31;109670;1250;58154;-70
2023/08/27 12:34:44;;;;;;;15.40;14.30;;;;;;;28.77;100.00;98155.90;109646;1250;58204;-69
2023/08/27 12:37:13;;;;;;;15.20;14.00;;;;;;;28.72;100.00;98152.84;109685;1250;66412;-70
2023/08/27 12:39:41;;;;;;;14.40;13.40;;;;;;;28.66;100.00;98154.89;109698;1250;58758;-70
2023/08/27 12:42:09;;;;;;;15.10;13.90;;;;;;;28.48;100.00;98152.60;109418;1250;64065;-70
2023/08/27 12:44:36;;;;;;;16.40;14.80;;;;;;;28.34;100.00;98143.46;109497;1250;58186;-70
2023/08/27 12:47:03;;;;;;;14.60;13.40;;;;;;;28.31;100.00;98139.27;109590;1250;58154;-70
2023/08/27 12:49:30;;;;;;;16.00;14.90;;;;;;;28.26;100.00;98133.02;109397;1250;64041;-69
2023/08/27 12:51:57;;;;;;;15.40;14.30;;;;;;;28.17;100.00;98129.52;109520;1250;59792;-70
2023/08/27 12:54:23;;;;;;;15.20;13.90;;;;;;;28.11;100.00;98126.13;109499;1250;62849;-70
2023/08/27 12:56:50;;;;;;;15.60;14.30;;;;;;;28.08;100.00;98124.20;109682;1250;58186;-70
2023/08/27 12:59:19;;;;;;;14.60;13.60;;;;;;;28.12;100.00;98123.30;109670;1250;58207;-70
2023/08/27 13:01:46;;;;;;;15.20;14.00;;;;;;;28.33;100.00;98121.98;109700;1250;64030;-70
2023/08/27 13:04:14;;;;;;;15.60;14.30;;;;;;;28.46;100.00;98124.60;109688;1250;60270;-70
2023/08/27 13:06:44;;;;;;;15.80;14.50;;;;;;;28.56;100.00;98129.89;109679;1250;62796;-70
2023/08/27 13:09:16;;;;;;;15.00;13.90;;;;;;;28.53;100.00;98133.92;109683;1250;58461;-69
2023/08/27 13:11:42;;;;;;;15.40;14.30;;;;;;;28.48;100.00;98137.34;109602;1250;58255;-70
2023/08/27 13:14:09;;;;;;;14.70;13.50;;;;;;;28.42;100.00;98133.66;109668;1250;58170;-70
2023/08/27 13:16:37;;;;;;;17.30;16.00;;;;;;;28.44;100.00;98132.17;109717;1253;59904;-70
2023/08/27 13:19:04;;;;;;;17.60;15.90;;;;;;;28.49;100.00;98130.16;109647;1250;64081;-70
2023/08/27 13:21:31;;;;;;;17.10;15.70;;;;;;;28.53;100.00;98128.45;109624;1250;58173;-70
2023/08/27 13:23:59;;;;;;;17.40;16.10;;;;;;;28.58;100.00;98125.67;109712;1250;58269;-70
2023/08/27 13:26:25;;;;;;;18.60;17.20;;;;;;;28.67;100.00;98126.86;109727;1250;65011;-70
2023/08/27 13:28:52;;;;;;;18.70;17.10;;;;;;;28.73;100.00;98129.99;109727;1250;58952;-70
2023/08/27 13:31:18;;;;;;;18.50;16.60;;;;;;;28.73;100.00;98132.13;109701;1250;63740;-70
2023/08/27 13:33:45;;;;;;;18.80;17.20;;;;;;;28.70;100.00;98131.35;109667;1250;58117;-70
2023/08/27 13:36:12;;;;;;;19.10;17.40;;;;;;;28.62;100.00;98135.35;109742;1250;58278;-70
2023/08/27 13:38:38;;;;;;;19.00;17.60;;;;;;;28.42;100.00;98133.94;109704;1250;65315;-70
2023/08/27 13:41:05;;;;;;;18.40;17.00;;;;;;;28.30;100.00;98134.27;109413;1250;58296;-70
2023/08/27 13:43:32;;;;;;;17.70;16.40;;;;;;;28.23;100.00;98132.40;109642;1251;58528;-70
2023/08/27 13:45:58;;;;;;;17.90;16.30;;;;;;;28.22;100.00;98132.09;109575;1251;58127;-70
2023/08/27 13:48:25;;;;;;;17.30;16.10;;;;;;;28.21;100.00;98130.63;109551;1251;58310;-70
2023/08/27 13:50:51;;;;;;;16.50;15.20;;;;;;;28.11;100.00;98130.52;109575;1252;58168;-70
2023/08/27 13:53:20;;;;;;;16.00;14.60;;;;;;;28.00;100.00;98131.66;109654;1251;59053;-70
2023/08/27 13:55:47;;;;;;;15.60;14.20;;;;;;;27.82;100.00;98134.12;109501;1252;63280;-70
2023/08/27 13:58:14;;;;;;;14.80;13.60;;;;;;;27.61;100.00;98129.38;109551;1252;58136;-69
2023/08/27 14:00:41;;;;;;;16.20;14.90;;;;;;;27.42;100.00;98128.65;109544;1252;58144;-70
2023/08/27 14:03:07;;;;;;;17.10;15.70;;;;;;;27.31;100.00;98130.83;109622;1252;66346;-70
2023/08/27 14:05:34;;;;;;;16.30;15.20;;;;;;;27.27;100.00;98130.34;109655;1252;61391;-70
2023/08/27 14:08:02;;;;;;;16.80;15.50;;;;;;;27.23;100.00;98127.02;109652;1251;63747;-69
2023/08/27 14:10:29;;;;;;;16.50;15.20;;;;;;;27.18;100.00;98127.08;109565;1252;58173;-70
2023/08/27 14:12:55;;;;;;;16.30;14.80;;;;;;;27.12;100.00;98126.80;109546;1251;58040;-70
2023/08/27 14:15:22;;;;;;;16.50;14.90;;;;;;;27.05;100.00;98122.63;109572;1251;58812;-70
2023/08/27 14:17:49;;;;;;;15.80;14.40;;;;;;;26.94;100.00;98125.23;109538;1253;59828;-69
2023/08/27 14:20:15;;;;;;;17.10;15.90;;;;;;;26.97;100.00;98126.45;109515;1252;62669;-69
2023/08/27 14:22:42;;;;;;;16.70;15.50;;;;;;;27.01;100.00;98123.95;109518;1252;58175;-70
2023/08/27 14:25:08;;;;;;;15.60;14.40;;;;;;;27.06;100.00;98123.72;109583;1252;58127;-70
2023/08/27 14:27:35;;;;;;;15.60;14.40;;;;;;;27.04;100.00;98126.58;109542;1252;64124;-70
2023/08/27 14:30:02;;;;;;;15.20;14.00;;;;;;;27.02;100.00;98123.86;109523;1252;60100;-70
2023/08/27 14:32:28;;;;;;;15.50;14.20;;;;;;;27.00;100.00;98120.98;109568;1252;62802;-69
2023/08/27 14:34:55;;;;;;;15.60;14.40;;;;;;;27.07;100.00;98123.73;109604;1252;58193;-69
2023/08/27 14:37:21;;;;;;;14.80;13.70;;;;;;;27.15;100.00;98124.02;109604;1252;58135;-70
2023/08/27 14:39:48;;;;;;;16.30;15.00;;;;;;;27.20;100.00;98115.70;109552;1253;58460;-70
2023/08/27 14:42:14;;;;;;;16.30;15.10;;;;;;;27.26;100.00;98109.64;109562;1252;58253;-70
2023/08/27 14:44:41;;;;;;;16.90;15.70;;;;;;;27.28;100.00;98108.77;109573;1253;58212;-70
2023/08/27 14:47:07;;;;;;;17.20;15.80;;;;;;;27.31;100.00;98107.42;109520;1251;58197;-71
2023/08/27 14:49:34;;;;;;;16.50;15.30;;;;;;;27.33;100.00;98108.90;109561;1251;58289;-71
2023/08/27 14:52:01;;;;;;;17.40;16.00;;;;;;;27.32;100.00;98104.71;109621;1255;65239;-71
2023/08/27 14:54:27;;;;;;;17.60;16.10;;;;;;;27.28;100.00;98100.48;109548;1251;58136;-71
2023/08/27 14:56:54;;;;;;;17.30;16.00;;;;;;;27.24;100.00;98104.98;109554;1252;62892;-71
2023/08/27 14:59:41;;;;;;;16.90;15.60;;;;;;;27.26;100.00;98106.86;109571;1252;58204;-71
2023/08/27 15:02:10;;;;;;;17.70;16.30;;;;;;;27.31;100.00;98106.76;109550;1251;58141;-71
2023/08/27 15:04:36;;;;;;;17.80;16.10;;;;;;;27.40;100.00;98104.09;109280;1252;65227;-70
2023/08/27 15:07:03;;;;;;;17.80;16.40;;;;;;;27.55;100.00;98106.90;109548;1252;60093;-71
2023/08/27 15:09:30;;;;;;;16.90;15.40;;;;;;;27.69;100.00;98102.30;109579;1252;64020;-71
2023/08/27 15:11:57;;;;;;;18.00;16.60;;;;;;;27.84;100.00;98102.39;109553;1251;58449;-71
2023/08/27 15:14:24;;;;;;;16.60;15.30;;;;;;;27.97;100.00;98106.18;109515;1253;58158;-71
2023/08/27 15:16:53;;;;;;;16.80;15.50;;;;;;;28.07;100.00;98108.49;109563;1251;64543;-71
2023/08/27 15:19:20;;;;;;;17.70;16.40;;;;;;;28.10;100.00;98108.23;109597;1252;60215;-71
2023/08/27 15:21:47;;;;;;;17.30;15.80;;;;;;;28.02;100.00;98110.31;109538;1252;64071;-70
2023/08/27 15:24:13;;;;;;;17.40;16.10;;;;;;;27.90;100.00;98109.02;109521;1252;58142;-70
2023/08/27 15:26:40;;;;;;;17.20;15.90;;;;;;;27.81;100.00;98110.77;109564;1253;58125;-70
2023/08/27 15:29:06;;;;;;;16.00;14.70;;;;;;;27.74;100.00;98109.20;109565;1253;58820;-71
2023/08/27 15:31:34;;;;;;;16.20;15.00;;;;;;;27.72;100.00;98113.30;109592;1254;60085;-71
2023/08/27 15:34:04;;;;;;;17.20;15.70;;;;;;;27.69;100.00;98117.39;109582;1253;64078;-71
2023/08/27 15:36:31;;;;;;;16.90;15.60;;;;;;;27.66;100.00;98117.14;109091;1253;58248;-71
2023/08/27 15:38:58;;;;;;;17.60;16.20;;;;;;;27.59;100.00;98113.75;109301;1252;59002;-71
2023/08/27 15:41:24;;;;;;;19.30;17.90;;;;;;;27.49;100.00;98112.55;109545;1251;63965;-71
2023/08/27 15:43:51;;;;;;;17.40;15.90;;;;;;;27.37;100.00;98112.39;109611;1252;60329;-70
2023/08/27 15:46:17;;;;;;;17.20;15.90;;;;;;;27.25;100.00;98111.30;109584;1251;64075;-70
2023/08/27 15:48:44;;;;;;;18.90;17.40;;;;;;;27.12;100.00;98106.00;109562;1253;58192;-71
2023/08/27 15:51:11;;;;;;;18.30;16.80;;;;;;;27.02;100.00;98108.08;109520;1253;58167;-70
2023/08/27 15:53:37;;;;;;;17.00;15.70;;;;;;;26.98;100.00;98104.94;109345;1252;66167;-70
2023/08/27 15:56:04;;;;;;;18.90;17.30;;;;;;;26.92;100.00;98105.09;109559;1253;58526;-70
2023/08/27 15:58:30;;;;;;;19.40;17.80;;;;;;;26.82;100.00;98105.46;109563;1252;64106;-70
2023/08/27 16:00:57;;;;;;;19.00;17.30;;;;;;;26.67;100.00;98100.95;109571;1251;59816;-69
2023/08/27 16:03:23;;;;;;;19.60;17.90;;;;;;;26.54;100.00;98100.98;109266;1252;58169;-69
2023/08/27 16:05:50;;;;;;;18.90;17.50;;;;;;;26.41;100.00;98103.80;109554;1253;64940;-70
2023/08/27 16:08:16;;;;;;;18.20;16.90;;;;;;;26.31;100.00;98113.37;109572;1253;58677;-70
2023/08/27 16:10:43;;;;;;;19.60;18.00;;;;;;;26.21;100.00;98111.08;109534;1252;58285;-69
2023/08/27 16:13:10;;;;;;;20.30;18.50;;;;;;;26.11;100.00;98106.83;109538;1252;58180;-70
2023/08/27 16:15:37;;;;;;;20.80;19.10;;;;;;;26.01;100.00;98106.63;109573;1251;58095;-69
2023/08/27 16:18:04;;;;;;;20.00;18.40;;;;;;;25.93;100.00;98104.22;109250;1252;65275;-69
2023/08/27 16:20:30;;;;;;;20.10;18.40;;;;;;;25.85;100.00;98099.11;109299;1253;58687;-69
2023/08/27 16:22:58;;;;;;;21.10;19.50;;;;;;;25.80;100.00;98097.24;109548;1253;64177;-69
2023/08/27 16:25:24;;;;;;;20.70;19.10;;;;;;;25.78;100.00;98087.89;109544;1252;58110;-69
2023/08/27 16:27:51;;;;;;;21.00;19.20;;;;;;;25.78;100.00;98080.84;109581;1253;58204;-69
2023/08/27 16:30:17;;;;;;;22.70;20.60;;;;;;;25.78;100.00;98078.02;109552;1252;64045;-70
2023/08/27 16:32:44;;;;;;;21.00;19.40;;;;;;;25.79;100.00;98079.23;109545;1253;59031;-70
2023/08/27 16:35:10;;;;;;;24.80;22.80;;;;;;;25.78;100.00;98071.57;109571;1252;64212;-70